www.cux-wetter.de
Wetterdaten: Montag, 08.11.2010
Datum Zeit Temp. A. Feuchte A. Luftdruck Regen Wind Richtung Richtung Sonnenschein Solar Taupunkt Windchill Windben
08.11.2010 00:05 2,0 C 81 % 998,5 hPa 0,0 l/m 0,3 km/h (0 Bft) O-SO 115 0 min 0 W/m -0,9 C 2,0 C 0,3 km/h (0 Bft)
08.11.2010 00:09 2,0 C 81 % 998,5 hPa 0,0 l/m 7,7 km/h (2 Bft) SO 140 0 min 0 W/m -0,9 C 0,7 C 7,7 km/h (2 Bft)
08.11.2010 00:14 2,0 C 81 % 998,5 hPa 0,0 l/m 3,6 km/h (1 Bft) S 180 0 min 0 W/m -0,9 C 2,0 C 3,6 km/h (1 Bft)
08.11.2010 00:20 2,1 C 81 % 998,5 hPa 0,0 l/m 2,9 km/h (1 Bft) S 180 0 min 0 W/m -0,8 C 2,1 C 2,9 km/h (1 Bft)
08.11.2010 00:25 2,1 C 81 % 998,5 hPa 0,0 l/m 5,2 km/h (1 Bft) S 180 0 min 0 W/m -0,8 C 2,1 C 5,2 km/h (1 Bft)
08.11.2010 00:29 2,1 C 81 % 998,5 hPa 0,0 l/m 6,1 km/h (2 Bft) S-SO 150 0 min 0 W/m -0,8 C 2,1 C 6,1 km/h (2 Bft)
08.11.2010 00:34 2,2 C 81 % 998,5 hPa 0,0 l/m 4,6 km/h (1 Bft) S-SO 150 0 min 0 W/m -0,7 C 2,2 C 4,6 km/h (1 Bft)
08.11.2010 00:39 2,3 C 81 % 997,5 hPa 0,0 l/m 4,7 km/h (1 Bft) S-SO 155 0 min 0 W/m -0,6 C 2,3 C 4,7 km/h (1 Bft)
08.11.2010 00:44 2,3 C 81 % 997,5 hPa 0,0 l/m 0,6 km/h (0 Bft) S-SO 155 0 min 0 W/m -0,6 C 2,3 C 0,6 km/h (0 Bft)
08.11.2010 00:49 2,3 C 81 % 997,5 hPa 0,0 l/m 5,0 km/h (1 Bft) S-SO 155 0 min 0 W/m -0,6 C 2,3 C 5,0 km/h (1 Bft)
08.11.2010 00:54 2,3 C 81 % 997,5 hPa 0,0 l/m 5,9 km/h (2 Bft) S-SO 155 0 min 0 W/m -0,6 C 2,3 C 5,9 km/h (2 Bft)
08.11.2010 01:00 2,3 C 81 % 997,5 hPa 0,0 l/m 5,3 km/h (1 Bft) S-SO 160 0 min 0 W/m -0,6 C 2,3 C 5,3 km/h (1 Bft)
08.11.2010 01:04 2,3 C 81 % 997,5 hPa 0,0 l/m 4,2 km/h (1 Bft) S-SO 160 0 min 0 W/m -0,6 C 2,3 C 4,2 km/h (1 Bft)
08.11.2010 01:09 2,3 C 81 % 997,5 hPa 0,0 l/m 3,5 km/h (1 Bft) S-SO 155 0 min 0 W/m -0,6 C 2,3 C 3,5 km/h (1 Bft)
08.11.2010 01:14 2,3 C 81 % 997,5 hPa 0,0 l/m 3,1 km/h (1 Bft) S-SO 155 0 min 0 W/m -0,6 C 2,3 C 3,1 km/h (1 Bft)
08.11.2010 01:20 2,2 C 81 % 997,5 hPa 0,0 l/m 5,5 km/h (2 Bft) S-SO 160 0 min 0 W/m -0,7 C 2,2 C 5,5 km/h (2 Bft)
08.11.2010 01:25 2,2 C 81 % 997,5 hPa 0,0 l/m 5,0 km/h (1 Bft) S-SO 165 0 min 0 W/m -0,7 C 2,2 C 5,0 km/h (1 Bft)
08.11.2010 01:29 2,2 C 81 % 997,5 hPa 0,0 l/m 2,6 km/h (1 Bft) S-SO 165 0 min 0 W/m -0,7 C 2,2 C 2,6 km/h (1 Bft)
08.11.2010 01:34 2,2 C 81 % 997,5 hPa 0,0 l/m 1,4 km/h (1 Bft) S-SO 165 0 min 0 W/m -0,7 C 2,2 C 1,4 km/h (1 Bft)
08.11.2010 01:39 2,2 C 81 % 997,5 hPa 0,0 l/m 1,8 km/h (1 Bft) S-SO 165 0 min 0 W/m -0,7 C 2,2 C 1,8 km/h (1 Bft)
08.11.2010 01:44 2,2 C 81 % 996,5 hPa 0,0 l/m 6,5 km/h (2 Bft) S-SO 165 0 min 0 W/m -0,7 C 2,1 C 6,5 km/h (2 Bft)
08.11.2010 01:49 2,1 C 81 % 996,5 hPa 0,0 l/m 5,8 km/h (2 Bft) S-SO 160 0 min 0 W/m -0,8 C 2,1 C 5,8 km/h (2 Bft)
08.11.2010 01:55 2,1 C 81 % 996,5 hPa 0,0 l/m 3,3 km/h (1 Bft) S-SO 165 0 min 0 W/m -0,8 C 2,1 C 3,3 km/h (1 Bft)
08.11.2010 02:00 2,0 C 81 % 996,5 hPa 0,0 l/m 0,4 km/h (0 Bft) S-SO 165 0 min 0 W/m -0,9 C 2,0 C 0,4 km/h (0 Bft)
08.11.2010 02:04 1,9 C 81 % 996,5 hPa 0,0 l/m 0,3 km/h (0 Bft) S-SO 165 0 min 0 W/m -1,0 C 1,9 C 0,3 km/h (0 Bft)
08.11.2010 02:09 1,9 C 81 % 996,5 hPa 0,0 l/m 0,0 km/h (0 Bft) S-SO 165 0 min 0 W/m -1,0 C 1,9 C 0,0 km/h (0 Bft)
08.11.2010 02:15 1,8 C 81 % 996,5 hPa 0,0 l/m 0,0 km/h (0 Bft) S-SO 165 0 min 0 W/m -1,1 C 1,8 C 0,0 km/h (0 Bft)
08.11.2010 02:20 1,7 C 81 % 996,5 hPa 0,0 l/m 0,0 km/h (0 Bft) S-SO 165 0 min 0 W/m -1,2 C 1,7 C 0,0 km/h (0 Bft)
08.11.2010 02:24 1,7 C 81 % 996,5 hPa 0,0 l/m 0,0 km/h (0 Bft) S-SO 165 0 min 0 W/m -1,2 C 1,7 C 0,0 km/h (0 Bft)
08.11.2010 02:29 1,6 C 81 % 996,5 hPa 0,0 l/m 3,0 km/h (1 Bft) S-SO 165 0 min 0 W/m -1,3 C 1,6 C 3,0 km/h (1 Bft)
08.11.2010 02:34 1,5 C 81 % 996,5 hPa 0,0 l/m 0,9 km/h (0 Bft) S-SO 165 0 min 0 W/m -1,4 C 1,5 C 0,9 km/h (0 Bft)
08.11.2010 02:39 1,5 C 82 % 996,5 hPa 0,0 l/m 4,3 km/h (1 Bft) S-SO 165 0 min 0 W/m -1,2 C 1,5 C 4,3 km/h (1 Bft)
08.11.2010 02:44 1,5 C 82 % 996,5 hPa 0,0 l/m 1,3 km/h (1 Bft) S-SO 160 0 min 0 W/m -1,2 C 1,5 C 1,3 km/h (1 Bft)
08.11.2010 02:50 1,5 C 82 % 995,5 hPa 0,0 l/m 0,6 km/h (0 Bft) S-SO 165 0 min 0 W/m -1,2 C 1,5 C 0,6 km/h (0 Bft)
08.11.2010 02:55 1,5 C 82 % 996,5 hPa 0,0 l/m 0,3 km/h (0 Bft) S-SO 165 0 min 0 W/m -1,2 C 1,5 C 0,3 km/h (0 Bft)
08.11.2010 02:59 1,5 C 82 % 995,5 hPa 0,0 l/m 0,4 km/h (0 Bft) S-SO 160 0 min 0 W/m -1,2 C 1,5 C 0,4 km/h (0 Bft)
08.11.2010 03:04 1,5 C 82 % 995,5 hPa 0,0 l/m 0,3 km/h (0 Bft) S-SO 160 0 min 0 W/m -1,2 C 1,5 C 0,3 km/h (0 Bft)
08.11.2010 03:10 1,5 C 82 % 995,5 hPa 0,0 l/m 0,4 km/h (0 Bft) S-SO 160 0 min 0 W/m -1,2 C 1,5 C 0,4 km/h (0 Bft)
08.11.2010 03:15 1,5 C 82 % 995,5 hPa 0,0 l/m 0,7 km/h (0 Bft) S-SO 165 0 min 0 W/m -1,2 C 1,5 C 0,7 km/h (0 Bft)
08.11.2010 03:19 1,4 C 82 % 995,5 hPa 0,0 l/m 4,0 km/h (1 Bft) S-SO 160 0 min 0 W/m -1,3 C 1,4 C 4,0 km/h (1 Bft)
08.11.2010 03:24 1,4 C 82 % 995,5 hPa 0,0 l/m 0,3 km/h (0 Bft) S-SO 160 0 min 0 W/m -1,3 C 1,4 C 0,3 km/h (0 Bft)
08.11.2010 03:29 1,4 C 82 % 995,5 hPa 0,0 l/m 0,6 km/h (0 Bft) S-SO 160 0 min 0 W/m -1,3 C 1,4 C 0,6 km/h (0 Bft)
08.11.2010 03:34 1,4 C 82 % 994,5 hPa 0,0 l/m 0,1 km/h (0 Bft) S-SO 160 0 min 0 W/m -1,3 C 1,4 C 0,1 km/h (0 Bft)
08.11.2010 03:40 1,3 C 82 % 994,5 hPa 0,0 l/m 0,9 km/h (0 Bft) S-SO 165 0 min 0 W/m -1,4 C 1,3 C 0,9 km/h (0 Bft)
08.11.2010 03:45 1,3 C 82 % 994,5 hPa 0,0 l/m 0,6 km/h (0 Bft) S-SO 165 0 min 0 W/m -1,4 C 1,3 C 0,6 km/h (0 Bft)
08.11.2010 03:49 1,3 C 82 % 994,5 hPa 0,0 l/m 0,6 km/h (0 Bft) S-SO 160 0 min 0 W/m -1,4 C 1,3 C 0,6 km/h (0 Bft)
08.11.2010 03:54 1,3 C 82 % 994,5 hPa 0,0 l/m 1,8 km/h (1 Bft) S-SO 165 0 min 0 W/m -1,4 C 1,3 C 1,8 km/h (1 Bft)
08.11.2010 03:59 1,2 C 82 % 994,5 hPa 0,0 l/m 5,9 km/h (2 Bft) S-SO 165 0 min 0 W/m -1,5 C 1,2 C 5,9 km/h (2 Bft)
08.11.2010 04:05 1,2 C 82 % 994,5 hPa 0,0 l/m 0,4 km/h (0 Bft) S-SO 165 0 min 0 W/m -1,5 C 1,2 C 0,4 km/h (0 Bft)
08.11.2010 04:09 1,2 C 82 % 994,5 hPa 0,0 l/m 8,5 km/h (2 Bft) S 185 0 min 0 W/m -1,5 C -0,8 C 8,5 km/h (2 Bft)
08.11.2010 04:14 1,3 C 82 % 994,5 hPa 0,0 l/m 8,9 km/h (2 Bft) S-SO 155 0 min 0 W/m -1,4 C -1,1 C 8,9 km/h (2 Bft)
08.11.2010 04:19 1,3 C 82 % 994,5 hPa 0,0 l/m 6,3 km/h (2 Bft) S-SO 165 0 min 0 W/m -1,4 C 1,3 C 6,3 km/h (2 Bft)
08.11.2010 04:24 1,3 C 82 % 993,5 hPa 0,0 l/m 7,8 km/h (2 Bft) S 180 0 min 0 W/m -1,4 C -0,1 C 7,8 km/h (2 Bft)
08.11.2010 04:29 1,3 C 82 % 993,5 hPa 0,0 l/m 8,3 km/h (2 Bft) SO 140 0 min 0 W/m -1,4 C -0,6 C 8,3 km/h (2 Bft)
08.11.2010 04:35 1,4 C 82 % 993,5 hPa 0,0 l/m 11,9 km/h (2 Bft) S-SO 160 0 min 0 W/m -1,3 C -3,3 C 11,9 km/h (2 Bft)
08.11.2010 04:40 1,4 C 83 % 993,5 hPa 0,0 l/m 10,6 km/h (2 Bft) S 170 0 min 0 W/m -1,2 C -2,4 C 10,6 km/h (2 Bft)
08.11.2010 04:44 1,5 C 83 % 993,5 hPa 0,0 l/m 6,8 km/h (2 Bft) S-SO 165 0 min 0 W/m -1,1 C 1,1 C 6,8 km/h (2 Bft)
08.11.2010 04:49 1,5 C 83 % 993,5 hPa 0,0 l/m 6,2 km/h (2 Bft) S-SO 155 0 min 0 W/m -1,1 C 1,5 C 6,2 km/h (2 Bft)
08.11.2010 04:54 1,7 C 82 % 993,5 hPa 0,0 l/m 4,6 km/h (1 Bft) S-SO 160 0 min 0 W/m -1,0 C 1,7 C 4,6 km/h (1 Bft)
08.11.2010 04:59 1,7 C 82 % 993,5 hPa 0,0 l/m 10,3 km/h (2 Bft) S-SO 165 0 min 0 W/m -1,0 C -1,8 C 10,3 km/h (2 Bft)
08.11.2010 05:04 1,7 C 82 % 993,5 hPa 0,0 l/m 5,4 km/h (2 Bft) S 170 0 min 0 W/m -1,0 C 1,7 C 5,4 km/h (2 Bft)
08.11.2010 05:09 1,7 C 82 % 993,5 hPa 0,0 l/m 9,6 km/h (2 Bft) S-SO 165 0 min 0 W/m -1,0 C -1,3 C 9,6 km/h (2 Bft)
08.11.2010 05:14 1,7 C 81 % 993,5 hPa 0,0 l/m 6,9 km/h (2 Bft) S 185 0 min 0 W/m -1,2 C 1,2 C 6,9 km/h (2 Bft)
08.11.2010 05:19 1,7 C 81 % 992,5 hPa 0,0 l/m 6,7 km/h (2 Bft) S 185 0 min 0 W/m -1,2 C 1,4 C 6,7 km/h (2 Bft)
08.11.2010 05:25 1,7 C 81 % 993,5 hPa 0,0 l/m 8,3 km/h (2 Bft) S-SO 165 0 min 0 W/m -1,2 C -0,1 C 8,3 km/h (2 Bft)
08.11.2010 05:30 1,7 C 82 % 992,5 hPa 0,0 l/m 8,0 km/h (2 Bft) S 180 0 min 0 W/m -1,0 C 0,1 C 8,0 km/h (2 Bft)
08.11.2010 05:34 1,8 C 81 % 992,5 hPa 0,0 l/m 10,3 km/h (2 Bft) S 170 0 min 0 W/m -1,1 C -1,7 C 10,3 km/h (2 Bft)
08.11.2010 05:39 1,8 C 81 % 992,5 hPa 0,0 l/m 5,9 km/h (2 Bft) S-SO 150 0 min 0 W/m -1,1 C 1,8 C 5,9 km/h (2 Bft)
08.11.2010 05:44 1,8 C 81 % 992,5 hPa 0,0 l/m 5,8 km/h (2 Bft) S-SO 160 0 min 0 W/m -1,1 C 1,8 C 5,8 km/h (2 Bft)
08.11.2010 05:49 1,7 C 82 % 992,5 hPa 0,0 l/m 6,8 km/h (2 Bft) SO 145 0 min 0 W/m -1,0 C 1,3 C 6,8 km/h (2 Bft)
08.11.2010 05:55 1,7 C 82 % 992,5 hPa 0,0 l/m 7,0 km/h (2 Bft) O-SO 115 0 min 0 W/m -1,0 C 1,1 C 7,0 km/h (2 Bft)
08.11.2010 06:00 1,8 C 82 % 992,5 hPa 0,0 l/m 7,8 km/h (2 Bft) SO 135 0 min 0 W/m -0,9 C 0,4 C 7,8 km/h (2 Bft)
08.11.2010 06:04 1,8 C 82 % 992,5 hPa 0,0 l/m 5,5 km/h (2 Bft) SO 135 0 min 0 W/m -0,9 C 1,8 C 5,5 km/h (2 Bft)
08.11.2010 06:09 1,8 C 82 % 992,5 hPa 0,0 l/m 6,3 km/h (2 Bft) SO 135 0 min 0 W/m -0,9 C 1,8 C 6,3 km/h (2 Bft)
08.11.2010 06:15 1,8 C 82 % 992,5 hPa 0,0 l/m 6,8 km/h (2 Bft) SO 130 0 min 0 W/m -0,9 C 1,4 C 6,8 km/h (2 Bft)
08.11.2010 06:20 1,8 C 83 % 992,5 hPa 0,0 l/m 7,6 km/h (2 Bft) S-SO 155 0 min 0 W/m -0,8 C 0,6 C 7,6 km/h (2 Bft)
08.11.2010 06:24 1,8 C 83 % 992,5 hPa 0,0 l/m 10,0 km/h (2 Bft) S-SO 155 0 min 0 W/m -0,8 C -1,5 C 10,0 km/h (2 Bft)
08.11.2010 06:29 1,9 C 83 % 992,5 hPa 0,0 l/m 8,4 km/h (2 Bft) S-SO 160 0 min 0 W/m -0,7 C -0,0 C 8,4 km/h (2 Bft)
08.11.2010 06:34 1,9 C 83 % 992,5 hPa 0,0 l/m 7,0 km/h (2 Bft) SO 135 0 min 0 W/m -0,7 C 1,3 C 7,0 km/h (2 Bft)
08.11.2010 06:39 1,8 C 83 % 992,5 hPa 0,0 l/m 10,6 km/h (2 Bft) S-SO 160 0 min 0 W/m -0,8 C -1,9 C 10,6 km/h (2 Bft)
08.11.2010 06:45 1,8 C 83 % 991,5 hPa 0,0 l/m 9,9 km/h (2 Bft) S-SO 160 0 min 0 W/m -0,8 C -1,4 C 9,9 km/h (2 Bft)
08.11.2010 06:50 1,8 C 83 % 991,5 hPa 0,0 l/m 14,8 km/h (3 Bft) SO 145 0 min 0 W/m -0,8 C -4,7 C 14,8 km/h (3 Bft)
08.11.2010 06:54 1,8 C 83 % 991,5 hPa 0,0 l/m 12,4 km/h (2 Bft) SO 140 0 min 0 W/m -0,8 C -3,2 C 12,4 km/h (2 Bft)
08.11.2010 06:59 1,8 C 83 % 991,5 hPa 0,0 l/m 5,0 km/h (1 Bft) SO 130 0 min 0 W/m -0,8 C 1,8 C 5,0 km/h (1 Bft)
08.11.2010 07:05 1,8 C 83 % 991,5 hPa 0,0 l/m 10,1 km/h (2 Bft) SO 135 0 min 0 W/m -0,8 C -1,5 C 10,1 km/h (2 Bft)
08.11.2010 07:09 1,8 C 84 % 991,5 hPa 0,0 l/m 8,3 km/h (2 Bft) S-SO 150 0 min 0 W/m -0,6 C -0,0 C 8,3 km/h (2 Bft)
08.11.2010 07:14 1,8 C 84 % 991,5 hPa 0,0 l/m 10,7 km/h (2 Bft) SO 125 0 min 0 W/m -0,6 C -2,0 C 10,7 km/h (2 Bft)
08.11.2010 07:19 1,8 C 85 % 991,5 hPa 0,0 l/m 12,0 km/h (2 Bft) S-SO 150 0 min 0 W/m -0,4 C -2,9 C 12,0 km/h (2 Bft)
08.11.2010 07:24 1,9 C 85 % 991,5 hPa 0,0 l/m 6,3 km/h (2 Bft) S-SO 150 0 min 0 W/m -0,3 C 1,9 C 6,3 km/h (2 Bft)
08.11.2010 07:29 1,9 C 85 % 991,5 hPa 0,0 l/m 14,3 km/h (3 Bft) SO 140 0 min 0 W/m -0,3 C -4,3 C 14,3 km/h (3 Bft)
08.11.2010 07:35 1,9 C 85 % 990,5 hPa 0,0 l/m 10,9 km/h (2 Bft) SO 135 0 min 0 W/m -0,3 C -2,0 C 10,9 km/h (2 Bft)
08.11.2010 07:40 1,9 C 85 % 990,5 hPa 0,0 l/m 14,4 km/h (3 Bft) SO 140 0 min 0 W/m -0,3 C -4,3 C 14,4 km/h (3 Bft)
08.11.2010 07:44 1,9 C 85 % 990,5 hPa 0,0 l/m 13,8 km/h (3 Bft) S-SO 150 0 min 0 W/m -0,3 C -4,0 C 13,8 km/h (3 Bft)
08.11.2010 07:49 1,9 C 85 % 990,5 hPa 0,0 l/m 15,6 km/h (3 Bft) SO 140 0 min 0 W/m -0,3 C -5,0 C 15,6 km/h (3 Bft)
08.11.2010 07:54 2,0 C 85 % 990,5 hPa 0,0 l/m 12,3 km/h (2 Bft) SO 135 0 min 0 W/m -0,3 C -2,9 C 12,3 km/h (2 Bft)
08.11.2010 07:59 2,0 C 86 % 990,5 hPa 0,0 l/m 16,3 km/h (3 Bft) SO 135 0 min 0 W/m -0,1 C -5,3 C 16,3 km/h (3 Bft)
08.11.2010 08:04 2,0 C 86 % 990,5 hPa 0,0 l/m 15,6 km/h (3 Bft) SO 135 0 min 0 W/m -0,1 C -4,9 C 15,6 km/h (3 Bft)
08.11.2010 08:09 2,1 C 85 % 990,5 hPa 0,0 l/m 15,6 km/h (3 Bft) SO 135 0 min 0 W/m -0,2 C -4,8 C 15,6 km/h (3 Bft)
08.11.2010 08:14 2,1 C 85 % 990,5 hPa 0,0 l/m 21,0 km/h (4 Bft) SO 135 0 min 0 W/m -0,2 C -7,3 C 21,0 km/h (4 Bft)
08.11.2010 08:19 2,1 C 85 % 990,5 hPa 0,0 l/m 9,1 km/h (2 Bft) SO 130 0 min 0 W/m -0,2 C -0,4 C 9,1 km/h (2 Bft)
08.11.2010 08:25 2,1 C 85 % 990,5 hPa 0,0 l/m 11,1 km/h (2 Bft) S-SO 150 0 min 0 W/m -0,2 C -2,0 C 11,1 km/h (2 Bft)
08.11.2010 08:29 2,2 C 85 % 990,5 hPa 0,0 l/m 16,5 km/h (3 Bft) SO 140 0 min 0 W/m -0,1 C -5,1 C 16,5 km/h (3 Bft)
08.11.2010 08:34 2,2 C 85 % 990,5 hPa 0,0 l/m 15,6 km/h (3 Bft) SO 145 0 min 0 W/m -0,1 C -4,6 C 15,6 km/h (3 Bft)
08.11.2010 08:39 2,3 C 85 % 990,5 hPa 0,0 l/m 14,7 km/h (3 Bft) SO 135 0 min 0 W/m 0,0 C -4,0 C 14,7 km/h (3 Bft)
08.11.2010 08:44 2,3 C 85 % 990,5 hPa 0,0 l/m 18,5 km/h (3 Bft) SO 145 0 min 0 W/m 0,0 C -6,0 C 18,5 km/h (3 Bft)
08.11.2010 08:49 2,3 C 85 % 990,5 hPa 0,0 l/m 17,1 km/h (3 Bft) O-SO 120 0 min 0 W/m 0,0 C -5,3 C 17,1 km/h (3 Bft)
08.11.2010 08:55 2,4 C 85 % 990,5 hPa 0,0 l/m 15,2 km/h (3 Bft) SO 130 0 min 0 W/m 0,1 C -4,2 C 15,2 km/h (3 Bft)
08.11.2010 09:00 2,4 C 85 % 989,5 hPa 0,0 l/m 16,7 km/h (3 Bft) SO 140 0 min 0 W/m 0,1 C -5,0 C 16,7 km/h (3 Bft)
08.11.2010 09:04 2,5 C 85 % 989,5 hPa 0,0 l/m 14,6 km/h (3 Bft) SO 140 0 min 0 W/m 0,2 C -3,7 C 14,6 km/h (3 Bft)
08.11.2010 09:10 2,6 C 85 % 989,5 hPa 0,0 l/m 19,0 km/h (3 Bft) SO 140 0 min 0 W/m 0,3 C -5,8 C 19,0 km/h (3 Bft)
08.11.2010 09:15 2,6 C 85 % 989,5 hPa 0,0 l/m 19,0 km/h (3 Bft) SO 140 0 min 0 W/m 0,3 C -5,8 C 19,0 km/h (3 Bft)
08.11.2010 09:19 2,7 C 86 % 989,5 hPa 0,0 l/m 23,5 km/h (4 Bft) SO 140 0 min 0 W/m 0,6 C -7,5 C 23,5 km/h (4 Bft)
08.11.2010 09:24 2,7 C 86 % 989,5 hPa 0,0 l/m 15,1 km/h (3 Bft) SO 130 0 min 0 W/m 0,6 C -3,8 C 15,1 km/h (3 Bft)
08.11.2010 09:29 2,9 C 87 % 989,5 hPa 0,0 l/m 18,5 km/h (3 Bft) SO 145 0 min 0 W/m 1,0 C -5,2 C 18,5 km/h (3 Bft)
08.11.2010 09:34 3,1 C 86 % 989,5 hPa 0,0 l/m 21,8 km/h (4 Bft) S-SO 150 0 min 0 W/m 1,0 C -6,4 C 21,8 km/h (4 Bft)
08.11.2010 09:40 3,1 C 86 % 989,5 hPa 0,0 l/m 15,6 km/h (3 Bft) SO 130 0 min 0 W/m 1,0 C -3,5 C 15,6 km/h (3 Bft)
08.11.2010 09:45 3,1 C 86 % 989,5 hPa 0,0 l/m 18,5 km/h (3 Bft) S-SO 150 0 min 0 W/m 1,0 C -5,0 C 18,5 km/h (3 Bft)
08.11.2010 09:49 3,1 C 86 % 989,5 hPa 0,0 l/m 23,6 km/h (4 Bft) SO 140 0 min 0 W/m 1,0 C -7,0 C 23,6 km/h (4 Bft)
08.11.2010 09:54 3,1 C 85 % 989,5 hPa 0,0 l/m 17,8 km/h (3 Bft) S-SO 150 0 min 0 W/m 0,8 C -4,6 C 17,8 km/h (3 Bft)
08.11.2010 09:59 3,1 C 84 % 989,5 hPa 0,0 l/m 16,0 km/h (3 Bft) SO 125 0 min 0 W/m 0,7 C -3,8 C 16,0 km/h (3 Bft)
08.11.2010 10:04 3,1 C 84 % 989,5 hPa 0,0 l/m 11,0 km/h (2 Bft) SO 130 0 min 0 W/m 0,7 C -0,8 C 11,0 km/h (2 Bft)
08.11.2010 10:09 3,0 C 84 % 989,5 hPa 0,0 l/m 24,8 km/h (4 Bft) S-SO 160 0 min 0 W/m 0,6 C -7,6 C 24,8 km/h (4 Bft)
08.11.2010 10:14 2,9 C 84 % 989,5 hPa 0,0 l/m 22,8 km/h (4 Bft) S-SO 150 0 min 0 W/m 0,5 C -7,0 C 22,8 km/h (4 Bft)
08.11.2010 10:19 2,9 C 84 % 989,5 hPa 0,0 l/m 20,0 km/h (4 Bft) S-SO 160 0 min 0 W/m 0,5 C -5,9 C 20,0 km/h (4 Bft)
08.11.2010 10:25 3,1 C 84 % 988,5 hPa 0,0 l/m 21,5 km/h (4 Bft) SO 135 0 min 0 W/m 0,7 C -6,2 C 21,5 km/h (4 Bft)
08.11.2010 10:30 3,3 C 84 % 988,5 hPa 0,0 l/m 20,2 km/h (4 Bft) SO 140 0 min 0 W/m 0,9 C -5,5 C 20,2 km/h (4 Bft)
08.11.2010 10:34 3,5 C 83 % 988,5 hPa 0,0 l/m 17,8 km/h (3 Bft) SO 145 0 min 0 W/m 0,9 C -4,1 C 17,8 km/h (3 Bft)
08.11.2010 10:39 3,8 C 83 % 988,5 hPa 0,0 l/m 20,5 km/h (4 Bft) SO 135 0 min 0 W/m 1,2 C -4,9 C 20,5 km/h (4 Bft)
08.11.2010 10:44 4,0 C 81 % 988,5 hPa 0,0 l/m 25,6 km/h (4 Bft) S-SO 155 0 min 0 W/m 1,0 C -6,5 C 25,6 km/h (4 Bft)
08.11.2010 10:49 4,0 C 81 % 988,5 hPa 0,0 l/m 22,2 km/h (4 Bft) SO 130 0 min 0 W/m 1,0 C -5,3 C 22,2 km/h (4 Bft)
08.11.2010 10:55 4,5 C 84 % 988,5 hPa 0,0 l/m 25,5 km/h (4 Bft) SO 130 0 min 0 W/m 2,0 C -5,8 C 25,5 km/h (4 Bft)
08.11.2010 11:00 4,6 C 79 % 988,5 hPa 0,0 l/m 17,6 km/h (3 Bft) O-SO 120 0 min 0 W/m 1,3 C -2,7 C 17,6 km/h (3 Bft)
08.11.2010 11:04 4,5 C 79 % 988,5 hPa 0,0 l/m 21,8 km/h (4 Bft) SO 130 0 min 0 W/m 1,2 C -4,5 C 21,8 km/h (4 Bft)
08.11.2010 11:09 4,5 C 79 % 988,5 hPa 0,0 l/m 19,7 km/h (3 Bft) SO 140 0 min 0 W/m 1,2 C -3,7 C 19,7 km/h (3 Bft)
08.11.2010 11:15 4,5 C 79 % 987,5 hPa 0,0 l/m 18,6 km/h (3 Bft) S-SO 150 0 min 0 W/m 1,2 C -3,2 C 18,6 km/h (3 Bft)
08.11.2010 11:19 4,6 C 79 % 987,5 hPa 0,0 l/m 20,1 km/h (4 Bft) O-SO 120 0 min 0 W/m 1,3 C -3,7 C 20,1 km/h (4 Bft)
08.11.2010 11:24 4,6 C 79 % 987,5 hPa 0,0 l/m 17,8 km/h (3 Bft) O-SO 115 0 min 0 W/m 1,3 C -2,8 C 17,8 km/h (3 Bft)
08.11.2010 11:29 4,7 C 80 % 987,5 hPa 0,0 l/m 17,0 km/h (3 Bft) SO 130 0 min 0 W/m 1,6 C -2,3 C 17,0 km/h (3 Bft)
08.11.2010 11:34 4,8 C 79 % 987,5 hPa 0,0 l/m 18,6 km/h (3 Bft) SO 145 0 min 0 W/m 1,5 C -2,9 C 18,6 km/h (3 Bft)
08.11.2010 11:40 4,8 C 78 % 987,5 hPa 0,0 l/m 18,2 km/h (3 Bft) O-SO 115 0 min 0 W/m 1,3 C -2,7 C 18,2 km/h (3 Bft)
08.11.2010 11:45 4,9 C 78 % 987,5 hPa 0,0 l/m 17,8 km/h (3 Bft) SO 130 0 min 0 W/m 1,4 C -2,4 C 17,8 km/h (3 Bft)
08.11.2010 11:49 5,2 C 77 % 987,5 hPa 0,0 l/m 23,2 km/h (4 Bft) SO 140 0 min 0 W/m 1,5 C -4,1 C 23,2 km/h (4 Bft)
08.11.2010 11:54 5,3 C 78 % 986,5 hPa 0,0 l/m 23,2 km/h (4 Bft) SO 140 0 min 0 W/m 1,8 C -4,0 C 23,2 km/h (4 Bft)
08.11.2010 11:59 5,5 C 76 % 986,5 hPa 0,0 l/m 20,8 km/h (4 Bft) O-SO 120 0 min 0 W/m 1,6 C -2,8 C 20,8 km/h (4 Bft)
08.11.2010 12:05 5,6 C 75 % 986,5 hPa 0,0 l/m 28,5 km/h (5 Bft) O-SO 105 0 min 0 W/m 1,5 C -5,1 C 28,5 km/h (5 Bft)
08.11.2010 12:09 5,5 C 75 % 986,5 hPa 0,0 l/m 29,7 km/h (5 Bft) SO 125 0 min 0 W/m 1,4 C -5,6 C 29,7 km/h (5 Bft)
08.11.2010 12:14 5,7 C 74 % 986,5 hPa 0,0 l/m 19,0 km/h (3 Bft) SO 125 0 min 0 W/m 1,4 C -1,9 C 19,0 km/h (3 Bft)
08.11.2010 12:19 5,9 C 74 % 986,5 hPa 0,0 l/m 27,7 km/h (5 Bft) SO 135 0 min 0 W/m 1,6 C -4,5 C 27,7 km/h (5 Bft)
08.11.2010 12:24 5,9 C 72 % 986,5 hPa 0,0 l/m 30,2 km/h (5 Bft) O-SO 115 0 min 0 W/m 1,2 C -5,2 C 30,2 km/h (5 Bft)
08.11.2010 12:30 5,9 C 73 % 986,5 hPa 0,0 l/m 21,8 km/h (4 Bft) O-SO 110 0 min 0 W/m 1,4 C -2,7 C 21,8 km/h (4 Bft)
08.11.2010 12:34 6,0 C 72 % 986,5 hPa 0,0 l/m 27,8 km/h (5 Bft) SO 145 0 min 0 W/m 1,3 C -4,4 C 27,8 km/h (5 Bft)
08.11.2010 12:39 6,1 C 72 % 986,5 hPa 0,0 l/m 19,5 km/h (3 Bft) SO 145 0 min 0 W/m 1,4 C -1,6 C 19,5 km/h (3 Bft)
08.11.2010 12:44 6,1 C 73 % 986,5 hPa 0,0 l/m 20,5 km/h (4 Bft) SO 125 0 min 0 W/m 1,6 C -1,9 C 20,5 km/h (4 Bft)
08.11.2010 12:49 6,2 C 74 % 986,5 hPa 0,0 l/m 12,3 km/h (2 Bft) S-SO 150 0 min 0 W/m 1,9 C 2,0 C 12,3 km/h (2 Bft)
08.11.2010 12:55 6,4 C 74 % 986,5 hPa 0,0 l/m 20,6 km/h (4 Bft) S-SO 150 0 min 0 W/m 2,1 C -1,6 C 20,6 km/h (4 Bft)
08.11.2010 13:00 6,5 C 73 % 986,5 hPa 0,0 l/m 18,1 km/h (3 Bft) SO 125 0 min 0 W/m 2,0 C -0,5 C 18,1 km/h (3 Bft)
08.11.2010 13:04 6,5 C 73 % 986,5 hPa 0,0 l/m 21,9 km/h (4 Bft) SO 135 0 min 0 W/m 2,0 C -1,9 C 21,9 km/h (4 Bft)
08.11.2010 13:09 6,5 C 73 % 985,5 hPa 0,0 l/m 25,1 km/h (4 Bft) SO 145 0 min 0 W/m 2,0 C -2,9 C 25,1 km/h (4 Bft)
08.11.2010 13:15 6,5 C 73 % 985,5 hPa 0,0 l/m 21,3 km/h (4 Bft) SO 130 0 min 0 W/m 2,0 C -1,7 C 21,3 km/h (4 Bft)
08.11.2010 13:19 6,6 C 73 % 985,5 hPa 0,0 l/m 22,1 km/h (4 Bft) SO 125 0 min 0 W/m 2,1 C -1,9 C 22,1 km/h (4 Bft)
08.11.2010 13:24 6,7 C 74 % 985,5 hPa 0,0 l/m 20,1 km/h (4 Bft) O-SO 120 0 min 0 W/m 2,4 C -1,0 C 20,1 km/h (4 Bft)
08.11.2010 13:29 6,6 C 73 % 985,5 hPa 0,0 l/m 25,1 km/h (4 Bft) S-SO 150 0 min 0 W/m 2,1 C -2,8 C 25,1 km/h (4 Bft)
08.11.2010 13:34 6,6 C 73 % 985,5 hPa 0,0 l/m 18,8 km/h (3 Bft) O-SO 115 0 min 0 W/m 2,1 C -0,6 C 18,8 km/h (3 Bft)
08.11.2010 13:40 6,5 C 76 % 985,5 hPa 0,0 l/m 25,0 km/h (4 Bft) S-SO 150 0 min 0 W/m 2,6 C -2,9 C 25,0 km/h (4 Bft)
08.11.2010 13:45 6,3 C 75 % 985,5 hPa 0,0 l/m 31,4 km/h (5 Bft) S-SO 150 0 min 0 W/m 2,2 C -4,9 C 31,4 km/h (5 Bft)
08.11.2010 13:49 6,1 C 75 % 985,5 hPa 0,0 l/m 28,9 km/h (5 Bft) S-SO 150 0 min 0 W/m 2,0 C -4,5 C 28,9 km/h (5 Bft)
08.11.2010 13:54 5,9 C 76 % 985,5 hPa 0,0 l/m 27,3 km/h (5 Bft) S-SO 160 0 min 0 W/m 2,0 C -4,4 C 27,3 km/h (5 Bft)
08.11.2010 13:59 5,5 C 76 % 985,5 hPa 0,0 l/m 27,0 km/h (5 Bft) S-SO 150 0 min 0 W/m 1,6 C -4,9 C 27,0 km/h (5 Bft)
08.11.2010 14:04 5,2 C 77 % 985,5 hPa 0,0 l/m 23,6 km/h (4 Bft) S-SO 155 0 min 0 W/m 1,5 C -4,2 C 23,6 km/h (4 Bft)
08.11.2010 14:09 4,9 C 78 % 985,5 hPa 0,0 l/m 16,4 km/h (3 Bft) S-SO 150 0 min 0 W/m 1,4 C -1,7 C 16,4 km/h (3 Bft)
08.11.2010 14:14 4,7 C 78 % 985,5 hPa 0,0 l/m 19,6 km/h (3 Bft) S-SO 150 0 min 0 W/m 1,2 C -3,4 C 19,6 km/h (3 Bft)
08.11.2010 14:19 4,6 C 79 % 985,5 hPa 0,0 l/m 26,1 km/h (4 Bft) SO 140 0 min 0 W/m 1,3 C -5,8 C 26,1 km/h (4 Bft)
08.11.2010 14:25 4,6 C 79 % 985,5 hPa 0,0 l/m 21,1 km/h (4 Bft) S-SO 155 0 min 0 W/m 1,3 C -4,1 C 21,1 km/h (4 Bft)
08.11.2010 14:30 4,6 C 79 % 984,5 hPa 0,0 l/m 34,3 km/h (5 Bft) S-SO 150 0 min 0 W/m 1,3 C -8,0 C 34,3 km/h (5 Bft)
08.11.2010 14:34 4,6 C 80 % 984,5 hPa 0,0 l/m 18,7 km/h (3 Bft) S-SO 155 0 min 0 W/m 1,5 C -3,2 C 18,7 km/h (3 Bft)
08.11.2010 14:39 4,5 C 80 % 984,5 hPa 0,0 l/m 20,6 km/h (4 Bft) S-SO 155 0 min 0 W/m 1,4 C -4,1 C 20,6 km/h (4 Bft)
08.11.2010 14:44 4,5 C 80 % 984,5 hPa 0,0 l/m 20,6 km/h (4 Bft) SO 140 0 min 0 W/m 1,4 C -4,1 C 20,6 km/h (4 Bft)
08.11.2010 14:49 4,5 C 81 % 984,5 hPa 0,0 l/m 21,9 km/h (4 Bft) SO 135 0 min 0 W/m 1,5 C -4,6 C 21,9 km/h (4 Bft)
08.11.2010 14:55 4,5 C 82 % 984,5 hPa 0,0 l/m 21,5 km/h (4 Bft) SO 135 0 min 0 W/m 1,7 C -4,4 C 21,5 km/h (4 Bft)
08.11.2010 14:59 4,4 C 81 % 984,5 hPa 0,0 l/m 31,0 km/h (5 Bft) SO 125 0 min 0 W/m 1,4 C -7,5 C 31,0 km/h (5 Bft)
08.11.2010 15:04 4,4 C 82 % 984,5 hPa 0,0 l/m 23,2 km/h (4 Bft) SO 125 0 min 0 W/m 1,6 C -5,2 C 23,2 km/h (4 Bft)
08.11.2010 15:10 4,5 C 82 % 984,5 hPa 0,0 l/m 29,1 km/h (5 Bft) S-SO 155 0 min 0 W/m 1,7 C -6,8 C 29,1 km/h (5 Bft)
08.11.2010 15:14 4,4 C 82 % 984,5 hPa 0,0 l/m 27,7 km/h (5 Bft) S-SO 150 0 min 0 W/m 1,6 C -6,6 C 27,7 km/h (5 Bft)
08.11.2010 15:19 4,4 C 82 % 984,5 hPa 0,0 l/m 33,2 km/h (5 Bft) S-SO 150 0 min 0 W/m 1,6 C -8,0 C 33,2 km/h (5 Bft)
08.11.2010 15:24 4,4 C 82 % 984,5 hPa 0,0 l/m 22,5 km/h (4 Bft) SO 145 0 min 0 W/m 1,6 C -4,9 C 22,5 km/h (4 Bft)
08.11.2010 15:29 4,4 C 82 % 984,5 hPa 0,0 l/m 25,5 km/h (4 Bft) S-SO 150 0 min 0 W/m 1,6 C -5,9 C 25,5 km/h (4 Bft)
08.11.2010 15:35 4,4 C 82 % 984,5 hPa 0,0 l/m 28,5 km/h (5 Bft) SO 145 0 min 0 W/m 1,6 C -6,8 C 28,5 km/h (5 Bft)
08.11.2010 15:40 4,3 C 82 % 984,5 hPa 0,0 l/m 23,0 km/h (4 Bft) SO 140 0 min 0 W/m 1,5 C -5,2 C 23,0 km/h (4 Bft)
08.11.2010 15:44 4,3 C 82 % 984,5 hPa 0,0 l/m 24,8 km/h (4 Bft) SO 125 0 min 0 W/m 1,5 C -5,8 C 24,8 km/h (4 Bft)
08.11.2010 15:49 4,3 C 82 % 984,5 hPa 0,0 l/m 27,5 km/h (5 Bft) SO 140 0 min 0 W/m 1,5 C -6,7 C 27,5 km/h (5 Bft)
08.11.2010 15:54 4,2 C 81 % 984,5 hPa 0,0 l/m 29,5 km/h (5 Bft) SO 135 0 min 0 W/m 1,2 C -7,4 C 29,5 km/h (5 Bft)
08.11.2010 16:00 4,2 C 81 % 984,5 hPa 0,0 l/m 29,5 km/h (5 Bft) SO 140 0 min 0 W/m 1,2 C -7,4 C 29,5 km/h (5 Bft)
08.11.2010 16:04 4,1 C 82 % 984,5 hPa 0,0 l/m 23,1 km/h (4 Bft) SO 140 0 min 0 W/m 1,3 C -5,5 C 23,1 km/h (4 Bft)
08.11.2010 16:09 4,0 C 82 % 984,5 hPa 0,0 l/m 22,8 km/h (4 Bft) SO 135 0 min 0 W/m 1,2 C -5,5 C 22,8 km/h (4 Bft)
08.11.2010 16:14 4,1 C 83 % 984,5 hPa 0,0 l/m 19,1 km/h (3 Bft) O-SO 120 0 min 0 W/m 1,5 C -4,0 C 19,1 km/h (3 Bft)
08.11.2010 16:20 4,1 C 84 % 984,5 hPa 0,0 l/m 20,6 km/h (4 Bft) SO 140 0 min 0 W/m 1,6 C -4,6 C 20,6 km/h (4 Bft)
08.11.2010 16:24 4,1 C 84 % 984,5 hPa 0,0 l/m 20,1 km/h (4 Bft) SO 125 0 min 0 W/m 1,6 C -4,4 C 20,1 km/h (4 Bft)
08.11.2010 16:29 4,2 C 83 % 984,5 hPa 0,0 l/m 25,1 km/h (4 Bft) SO 140 0 min 0 W/m 1,6 C -6,1 C 25,1 km/h (4 Bft)
08.11.2010 16:34 4,2 C 83 % 984,5 hPa 0,0 l/m 22,9 km/h (4 Bft) SO 140 0 min 0 W/m 1,6 C -5,3 C 22,9 km/h (4 Bft)
08.11.2010 16:39 4,2 C 82 % 984,5 hPa 0,0 l/m 36,5 km/h (5 Bft) SO 140 0 min 0 W/m 1,4 C -9,0 C 36,5 km/h (5 Bft)
08.11.2010 16:45 4,1 C 82 % 983,5 hPa 0,0 l/m 23,8 km/h (4 Bft) SO 140 0 min 0 W/m 1,3 C -5,8 C 23,8 km/h (4 Bft)
08.11.2010 16:49 4,2 C 83 % 983,5 hPa 0,0 l/m 23,8 km/h (4 Bft) SO 140 0 min 0 W/m 1,6 C -5,6 C 23,8 km/h (4 Bft)
08.11.2010 16:54 4,2 C 82 % 983,5 hPa 0,0 l/m 27,2 km/h (5 Bft) SO 140 0 min 0 W/m 1,4 C -6,7 C 27,2 km/h (5 Bft)
08.11.2010 16:59 4,1 C 82 % 983,5 hPa 0,0 l/m 30,3 km/h (5 Bft) O-SO 120 0 min 0 W/m 1,3 C -7,7 C 30,3 km/h (5 Bft)
08.11.2010 17:05 4,1 C 82 % 983,5 hPa 0,0 l/m 31,3 km/h (5 Bft) SO 140 0 min 0 W/m 1,3 C -8,0 C 31,3 km/h (5 Bft)
08.11.2010 17:09 4,0 C 83 % 983,5 hPa 0,0 l/m 23,8 km/h (4 Bft) S-SO 160 0 min 0 W/m 1,4 C -5,9 C 23,8 km/h (4 Bft)
08.11.2010 17:14 4,1 C 83 % 983,5 hPa 0,0 l/m 20,5 km/h (4 Bft) SO 130 0 min 0 W/m 1,5 C -4,5 C 20,5 km/h (4 Bft)
08.11.2010 17:19 4,0 C 83 % 983,5 hPa 0,0 l/m 30,1 km/h (5 Bft) SO 125 0 min 0 W/m 1,4 C -7,8 C 30,1 km/h (5 Bft)
08.11.2010 17:25 4,0 C 83 % 983,5 hPa 0,0 l/m 24,3 km/h (4 Bft) SO 130 0 min 0 W/m 1,4 C -6,1 C 24,3 km/h (4 Bft)
08.11.2010 17:30 4,0 C 83 % 983,5 hPa 0,0 l/m 24,4 km/h (4 Bft) S-SO 150 0 min 0 W/m 1,4 C -6,1 C 24,4 km/h (4 Bft)
08.11.2010 17:34 4,0 C 83 % 983,5 hPa 0,0 l/m 14,0 km/h (3 Bft) S-SO 155 0 min 0 W/m 1,4 C -1,6 C 14,0 km/h (3 Bft)
08.11.2010 17:39 4,0 C 83 % 983,5 hPa 0,0 l/m 23,1 km/h (4 Bft) SO 135 0 min 0 W/m 1,4 C -5,6 C 23,1 km/h (4 Bft)
08.11.2010 17:44 3,9 C 83 % 983,5 hPa 0,0 l/m 23,0 km/h (4 Bft) O-SO 120 0 min 0 W/m 1,3 C -5,7 C 23,0 km/h (4 Bft)
08.11.2010 17:50 3,9 C 83 % 983,5 hPa 0,0 l/m 27,4 km/h (5 Bft) O-SO 110 0 min 0 W/m 1,3 C -7,2 C 27,4 km/h (5 Bft)
08.11.2010 17:55 3,9 C 83 % 983,5 hPa 0,0 l/m 25,8 km/h (4 Bft) SO 125 0 min 0 W/m 1,3 C -6,7 C 25,8 km/h (4 Bft)
08.11.2010 17:59 3,9 C 84 % 983,5 hPa 0,0 l/m 19,6 km/h (3 Bft) SO 140 0 min 0 W/m 1,4 C -4,4 C 19,6 km/h (3 Bft)
08.11.2010 18:04 3,8 C 84 % 983,5 hPa 0,0 l/m 20,8 km/h (4 Bft) SO 130 0 min 0 W/m 1,4 C -5,0 C 20,8 km/h (4 Bft)
08.11.2010 18:10 3,8 C 84 % 983,5 hPa 0,0 l/m 17,7 km/h (3 Bft) SO 125 0 min 0 W/m 1,4 C -3,7 C 17,7 km/h (3 Bft)
08.11.2010 18:14 3,8 C 84 % 983,5 hPa 0,0 l/m 16,6 km/h (3 Bft) SO 130 0 min 0 W/m 1,4 C -3,2 C 16,6 km/h (3 Bft)
08.11.2010 18:19 3,8 C 84 % 983,5 hPa 0,0 l/m 22,5 km/h (4 Bft) O 100 0 min 0 W/m 1,4 C -5,7 C 22,5 km/h (4 Bft)
08.11.2010 18:24 3,7 C 84 % 983,5 hPa 0,0 l/m 19,4 km/h (3 Bft) SO 125 0 min 0 W/m 1,3 C -4,6 C 19,4 km/h (3 Bft)
08.11.2010 18:29 3,7 C 84 % 983,5 hPa 0,0 l/m 20,3 km/h (4 Bft) O 95 0 min 0 W/m 1,3 C -5,0 C 20,3 km/h (4 Bft)
08.11.2010 18:35 3,8 C 85 % 983,5 hPa 0,0 l/m 18,9 km/h (3 Bft) O 90 0 min 0 W/m 1,5 C -4,3 C 18,9 km/h (3 Bft)
08.11.2010 18:39 3,7 C 84 % 983,5 hPa 0,0 l/m 22,8 km/h (4 Bft) O-SO 120 0 min 0 W/m 1,3 C -5,9 C 22,8 km/h (4 Bft)
08.11.2010 18:44 3,7 C 84 % 983,5 hPa 0,0 l/m 17,1 km/h (3 Bft) O-SO 115 0 min 0 W/m 1,3 C -3,6 C 17,1 km/h (3 Bft)
08.11.2010 18:49 3,8 C 84 % 983,5 hPa 0,0 l/m 18,6 km/h (3 Bft) O-SO 105 0 min 0 W/m 1,4 C -4,1 C 18,6 km/h (3 Bft)
08.11.2010 18:54 3,7 C 85 % 983,5 hPa 0,0 l/m 20,5 km/h (4 Bft) SO 140 0 min 0 W/m 1,4 C -5,1 C 20,5 km/h (4 Bft)
08.11.2010 19:00 3,7 C 85 % 983,5 hPa 0,0 l/m 19,6 km/h (3 Bft) SO 130 0 min 0 W/m 1,4 C -4,7 C 19,6 km/h (3 Bft)
08.11.2010 19:04 3,7 C 85 % 983,5 hPa 0,0 l/m 29,0 km/h (5 Bft) SO 135 0 min 0 W/m 1,4 C -7,9 C 29,0 km/h (5 Bft)
08.11.2010 19:09 3,7 C 85 % 983,5 hPa 0,0 l/m 18,8 km/h (3 Bft) SO 135 0 min 0 W/m 1,4 C -4,3 C 18,8 km/h (3 Bft)
08.11.2010 19:15 3,7 C 85 % 983,5 hPa 0,0 l/m 21,1 km/h (4 Bft) O-SO 105 0 min 0 W/m 1,4 C -5,3 C 21,1 km/h (4 Bft)
08.11.2010 19:19 3,7 C 85 % 983,5 hPa 0,0 l/m 24,8 km/h (4 Bft) O-SO 120 0 min 0 W/m 1,4 C -6,6 C 24,8 km/h (4 Bft)
08.11.2010 19:24 3,7 C 85 % 983,5 hPa 0,0 l/m 18,3 km/h (3 Bft) O-SO 115 0 min 0 W/m 1,4 C -4,1 C 18,3 km/h (3 Bft)
08.11.2010 19:29 3,6 C 84 % 983,5 hPa 0,0 l/m 19,1 km/h (3 Bft) O-SO 120 0 min 0 W/m 1,2 C -4,6 C 19,1 km/h (3 Bft)
08.11.2010 19:34 3,6 C 84 % 983,5 hPa 0,0 l/m 20,0 km/h (4 Bft) O-SO 115 0 min 0 W/m 1,2 C -5,0 C 20,0 km/h (4 Bft)
08.11.2010 19:39 3,6 C 84 % 983,5 hPa 0,0 l/m 34,1 km/h (5 Bft) O-SO 105 0 min 0 W/m 1,2 C -9,4 C 34,1 km/h (5 Bft)
08.11.2010 19:45 3,6 C 85 % 983,5 hPa 0,0 l/m 23,2 km/h (4 Bft) O-SO 110 0 min 0 W/m 1,3 C -6,2 C 23,2 km/h (4 Bft)
08.11.2010 19:49 3,6 C 84 % 983,5 hPa 0,0 l/m 21,7 km/h (4 Bft) O 95 0 min 0 W/m 1,2 C -5,7 C 21,7 km/h (4 Bft)
08.11.2010 19:54 3,6 C 85 % 983,5 hPa 0,0 l/m 24,1 km/h (4 Bft) O-SO 115 0 min 0 W/m 1,3 C -6,5 C 24,1 km/h (4 Bft)
08.11.2010 19:59 3,6 C 85 % 983,5 hPa 0,0 l/m 26,0 km/h (4 Bft) O-SO 110 0 min 0 W/m 1,3 C -7,2 C 26,0 km/h (4 Bft)
08.11.2010 20:05 3,6 C 85 % 983,5 hPa 0,0 l/m 29,1 km/h (5 Bft) O-SO 120 0 min 0 W/m 1,3 C -8,1 C 29,1 km/h (5 Bft)
08.11.2010 20:10 3,6 C 85 % 983,5 hPa 0,0 l/m 22,2 km/h (4 Bft) O-SO 115 0 min 0 W/m 1,3 C -5,9 C 22,2 km/h (4 Bft)
08.11.2010 20:14 3,5 C 85 % 983,5 hPa 0,0 l/m 27,7 km/h (5 Bft) O 90 0 min 0 W/m 1,2 C -7,8 C 27,7 km/h (5 Bft)
08.11.2010 20:19 3,6 C 85 % 983,5 hPa 0,0 l/m 25,4 km/h (4 Bft) O-NO 60 0 min 0 W/m 1,3 C -7,0 C 25,4 km/h (4 Bft)
08.11.2010 20:24 3,6 C 85 % 983,5 hPa 0,0 l/m 24,8 km/h (4 Bft) O-SO 115 0 min 0 W/m 1,3 C -6,8 C 24,8 km/h (4 Bft)
08.11.2010 20:29 3,6 C 85 % 983,5 hPa 0,0 l/m 29,4 km/h (5 Bft) O-SO 115 0 min 0 W/m 1,3 C -8,2 C 29,4 km/h (5 Bft)
08.11.2010 20:35 3,6 C 85 % 983,5 hPa 0,0 l/m 19,9 km/h (4 Bft) O-SO 115 0 min 0 W/m 1,3 C -4,9 C 19,9 km/h (4 Bft)
08.11.2010 20:40 3,6 C 86 % 983,5 hPa 0,0 l/m 19,1 km/h (3 Bft) O 95 0 min 0 W/m 1,5 C -4,6 C 19,1 km/h (3 Bft)
08.11.2010 20:44 3,6 C 86 % 983,5 hPa 0,0 l/m 15,4 km/h (3 Bft) O 90 0 min 0 W/m 1,5 C -2,8 C 15,4 km/h (3 Bft)
08.11.2010 20:49 3,6 C 86 % 982,5 hPa 0,0 l/m 15,4 km/h (3 Bft) O 90 0 min 0 W/m 1,5 C -2,8 C 15,4 km/h (3 Bft)
08.11.2010 20:54 3,7 C 86 % 982,5 hPa 0,0 l/m 22,8 km/h (4 Bft) O 100 0 min 0 W/m 1,6 C -5,9 C 22,8 km/h (4 Bft)
08.11.2010 20:59 3,7 C 85 % 982,5 hPa 0,0 l/m 20,1 km/h (4 Bft) O-SO 115 0 min 0 W/m 1,4 C -4,9 C 20,1 km/h (4 Bft)
08.11.2010 21:04 3,7 C 86 % 982,5 hPa 0,0 l/m 23,4 km/h (4 Bft) O-SO 115 0 min 0 W/m 1,6 C -6,2 C 23,4 km/h (4 Bft)
08.11.2010 21:09 3,8 C 85 % 982,5 hPa 0,0 l/m 15,9 km/h (3 Bft) O 95 0 min 0 W/m 1,5 C -2,8 C 15,9 km/h (3 Bft)
08.11.2010 21:14 3,8 C 85 % 982,5 hPa 0,0 l/m 13,8 km/h (3 Bft) O 95 0 min 0 W/m 1,5 C -1,7 C 13,8 km/h (3 Bft)
08.11.2010 21:19 3,7 C 85 % 982,5 hPa 0,0 l/m 25,0 km/h (4 Bft) O-SO 115 0 min 0 W/m 1,4 C -6,7 C 25,0 km/h (4 Bft)
08.11.2010 21:24 3,7 C 85 % 983,5 hPa 0,0 l/m 17,8 km/h (3 Bft) O-SO 105 0 min 0 W/m 1,4 C -3,9 C 17,8 km/h (3 Bft)
08.11.2010 21:30 3,7 C 85 % 983,5 hPa 0,0 l/m 14,8 km/h (3 Bft) O 100 0 min 0 W/m 1,4 C -2,4 C 14,8 km/h (3 Bft)
08.11.2010 21:34 3,7 C 85 % 982,5 hPa 0,0 l/m 14,6 km/h (3 Bft) O 95 0 min 0 W/m 1,4 C -2,3 C 14,6 km/h (3 Bft)
08.11.2010 21:39 3,7 C 85 % 982,5 hPa 0,0 l/m 11,0 km/h (2 Bft) O-SO 110 0 min 0 W/m 1,4 C -0,1 C 11,0 km/h (2 Bft)
08.11.2010 21:44 3,7 C 85 % 982,5 hPa 0,0 l/m 15,8 km/h (3 Bft) O 100 0 min 0 W/m 1,4 C -2,9 C 15,8 km/h (3 Bft)
08.11.2010 21:49 3,7 C 85 % 982,5 hPa 0,0 l/m 24,0 km/h (4 Bft) O 100 0 min 0 W/m 1,4 C -6,4 C 24,0 km/h (4 Bft)
08.11.2010 21:55 3,7 C 86 % 982,5 hPa 0,0 l/m 15,6 km/h (3 Bft) O-SO 105 0 min 0 W/m 1,6 C -2,8 C 15,6 km/h (3 Bft)
08.11.2010 22:00 3,7 C 86 % 982,5 hPa 0,0 l/m 17,7 km/h (3 Bft) O 80 0 min 0 W/m 1,6 C -3,8 C 17,7 km/h (3 Bft)
08.11.2010 22:04 3,8 C 86 % 982,5 hPa 0,0 l/m 15,5 km/h (3 Bft) O-NO 75 0 min 0 W/m 1,7 C -2,6 C 15,5 km/h (3 Bft)
08.11.2010 22:09 3,9 C 86 % 982,5 hPa 0,0 l/m 21,5 km/h (4 Bft) O-SO 115 0 min 0 W/m 1,8 C -5,2 C 21,5 km/h (4 Bft)
08.11.2010 22:15 3,9 C 86 % 982,5 hPa 0,0 l/m 24,6 km/h (4 Bft) SO 135 0 min 0 W/m 1,8 C -6,3 C 24,6 km/h (4 Bft)
08.11.2010 22:20 3,9 C 86 % 982,5 hPa 0,0 l/m 15,1 km/h (3 Bft) SO 135 0 min 0 W/m 1,8 C -2,3 C 15,1 km/h (3 Bft)
08.11.2010 22:24 4,0 C 86 % 982,5 hPa 0,0 l/m 15,5 km/h (3 Bft) O-SO 105 0 min 0 W/m 1,9 C -2,4 C 15,5 km/h (3 Bft)
08.11.2010 22:29 4,0 C 86 % 982,5 hPa 0,0 l/m 25,3 km/h (4 Bft) O-SO 105 0 min 0 W/m 1,9 C -6,4 C 25,3 km/h (4 Bft)
08.11.2010 22:34 4,0 C 86 % 982,5 hPa 0,0 l/m 14,1 km/h (3 Bft) O-SO 110 0 min 0 W/m 1,9 C -1,6 C 14,1 km/h (3 Bft)
08.11.2010 22:39 4,0 C 86 % 982,5 hPa 0,0 l/m 7,3 km/h (2 Bft) O-SO 105 0 min 0 W/m 1,9 C 3,2 C 7,3 km/h (2 Bft)
08.11.2010 22:45 4,0 C 86 % 982,5 hPa 0,0 l/m 15,2 km/h (3 Bft) O 95 0 min 0 W/m 1,9 C -2,2 C 15,2 km/h (3 Bft)
08.11.2010 22:49 4,0 C 86 % 982,5 hPa 0,0 l/m 15,2 km/h (3 Bft) O 95 0 min 0 W/m 1,9 C -2,2 C 15,2 km/h (3 Bft)
08.11.2010 22:54 4,1 C 86 % 982,5 hPa 0,0 l/m 14,8 km/h (3 Bft) O 95 0 min 0 W/m 2,0 C -1,9 C 14,8 km/h (3 Bft)
08.11.2010 22:59 4,1 C 86 % 982,5 hPa 0,0 l/m 9,4 km/h (2 Bft) O 95 0 min 0 W/m 2,0 C 1,5 C 9,4 km/h (2 Bft)
08.11.2010 23:05 4,2 C 86 % 982,5 hPa 0,0 l/m 19,1 km/h (3 Bft) S-SO 155 0 min 0 W/m 2,1 C -3,8 C 19,1 km/h (3 Bft)
08.11.2010 23:09 4,2 C 86 % 982,5 hPa 0,0 l/m 17,5 km/h (3 Bft) O 95 0 min 0 W/m 2,1 C -3,1 C 17,5 km/h (3 Bft)
08.11.2010 23:14 4,2 C 86 % 982,5 hPa 0,0 l/m 11,6 km/h (2 Bft) O 95 0 min 0 W/m 2,1 C 0,1 C 11,6 km/h (2 Bft)
08.11.2010 23:19 4,2 C 86 % 982,5 hPa 0,0 l/m 21,9 km/h (4 Bft) O 100 0 min 0 W/m 2,1 C -4,9 C 21,9 km/h (4 Bft)
08.11.2010 23:24 4,3 C 86 % 982,5 hPa 0,0 l/m 14,6 km/h (3 Bft) O-SO 110 0 min 0 W/m 2,2 C -1,6 C 14,6 km/h (3 Bft)
08.11.2010 23:30 4,3 C 86 % 982,5 hPa 0,0 l/m 11,4 km/h (2 Bft) SO 125 0 min 0 W/m 2,2 C 0,3 C 11,4 km/h (2 Bft)
08.11.2010 23:35 4,3 C 86 % 982,5 hPa 0,0 l/m 7,8 km/h (2 Bft) O-SO 115 0 min 0 W/m 2,2 C 3,0 C 7,8 km/h (2 Bft)
08.11.2010 23:39 4,3 C 86 % 982,5 hPa 0,0 l/m 7,9 km/h (2 Bft) O-SO 120 0 min 0 W/m 2,2 C 3,0 C 7,9 km/h (2 Bft)
08.11.2010 23:44 4,3 C 87 % 982,5 hPa 0,0 l/m 11,7 km/h (2 Bft) O-SO 105 0 min 0 W/m 2,3 C 0,1 C 11,7 km/h (2 Bft)
08.11.2010 23:49 4,3 C 87 % 982,5 hPa 0,0 l/m 10,1 km/h (2 Bft) O 100 0 min 0 W/m 2,3 C 1,2 C 10,1 km/h (2 Bft)
08.11.2010 23:54 4,4 C 87 % 982,5 hPa 0,0 l/m 10,0 km/h (2 Bft) SO 130 0 min 0 W/m 2,4 C 1,4 C 10,0 km/h (2 Bft)
_ Min-Zeit 03:59 12:24 20:49 - 02:09 - - - - 03:59 19:39 02:09
Minimum _ 1,2 C 72 % 982,5 hPa - 0,0 km/h (0 Bft) - - - - -1,5 C -9,4 C 0,0 km/h (0 Bft)
_ Max-Zeit 13:24 09:29 00:05 00:05 16:39 - - 00:05 00:05 13:40 22:39 16:39
Maximum _ 6,7 C 87 % 998,5 hPa 0,0 l/m 36,5 km/h
SO (5 Bft)
- - 0 min 0 W/m 2,6 C 3,2 C 36,5 km/h
SO (5 Bft)
Durchschnitt _ 3,3 C 82 % 988,3 hPa #0,0 l/m 15,8 km/h (3 Bft) SO - #0 min. 0 W/m 0,6 C -2,7 C 15,8 km/h (3 Bft)
copyright by Holger Just